Terminal Aerodrome Forecast
Issued by NWS

Home | Current Version | Previous Version | Text Only | Print | Product List | Glossary On
Versions: 1 2 3 4 5 6 7 8 9 10 11 12 13 14 15 16 17 18 19 20 21 22 23 24 25 26 27 28
000
FTUS43 KDLH 241722 AAC
TAFBRD
TAF AMD
KBRD 241722Z 2417/2518 19010G17KT P6SM BKN150
     FM242000 19010KT P6SM -SHRA VCTS SCT050CB BKN100
      TEMPO 2421/2423 -TSRA BKN050CB OVC100
     FM250000 25005KT P6SM SCT020 BKN100
     FM250400 28004KT P6SM OVC020
     FM250700 35003KT 4SM BR OVC008
     FM251400 36007KT P6SM BKN008 OVC015=

USA.gov is the U.S. government's official web portal to all federal, state and local government web resources and services.